Osceola, WI

8:27 PM CDT on April 01, 2015 (GMT -0500)
Hilltop Acres | | Change Station
CLOSE
Current Station
Personal Weather Station
Location: Osceola, WI
Elevation: 900 ft
Nearby Weather Stations

Elev 900 ft 45.34 °N, 92.67 °W | Updated 2 minutes ago

Rain
Rain
62.0 °F
Feels Like 62.0 °F
N
4.0
Wind Variable Wind from NW
Gusts 9.0 mph

Today
High -- | Low -- °F
--% Chance of Precip.
Yesterday
High -- | Low -- °F
Precip. -- in
6:51 AM 7:38 PM
Waxing Gibbous, 95% visible
Pressure 29.55 in
Visibility 10.0 miles
Clouds Overcast 9000 ft
Dew Point 56 °F
Humidity 81%
Rainfall 0.05 in
Snow Depth Not available.
UV 0 out of 12
Pollen 5.30 out of 12
Air Quality Not available.
Flu Activity Not available.
METAR KOEO 020115Z AUTO 30003KT 10SM RA OVC090 18/11 A2955 RMK AO2 T01780111

More Conditions Fewer Conditions

Pressure 29.55 in
Visibility 10.0 miles
Clouds Overcast 9000 ft
Dew Point 56 °F
Humidity 81%
Rainfall 0.05 in
Snow Depth Not available.
UV 0 out of 12
Pollen 5.30 out of 12
Air Quality Not available.
Flu Activity Not available.
METAR KOEO 020115Z AUTO 30003KT 10SM RA OVC090 18/11 A2955 RMK AO2 T01780111

More Conditions Fewer Conditions

Nowcast | as of 6:46 PM CDT on April 1, 2015

Thunderstorms are moving into northwest Wisconsin north of Twin City Metro area and south of Duluth Superior. A line of thunderstorms with torential rainfall...small hail and brief strong wind gusts between 45 and 55 mph are moving across parts of central and eastern Minnesota and northwest Wisconsin this evening. The heaviest rain fall rates are up to an inch an hour between the Twin City Metro and Lake Mille lacs...over through Grantsburg towards Danbury and Solon Springs. These storms are racing to the northeast at 40 mph and at the same time the whole line is drifting to the east at 15 mph...away from I-35 towards Balsam Lake and Turtle Lake this evening. They will persist through about midnight across west central Wisconsin. After the rains begin they will last a couple hours...expect street flooding from blustery wind driven heavy rain.

×

10-Day Weather Forecast

Almanac

Astronomy

Apr. 01, 2015 Rise Set
Actual Time
Civil Twilight
Nautical Twilight
Astronomical Twilight
Moon
Length of Visible Light
Length of Day
Tomorrow will be .
, % of the Moon is Illuminated

Today's Extremes

State Highs State Lows

Community

WunderPhotos

Upload Photos

1,810,142 photos uploaded!

WunderBlogs® & News

Nearby

Air Quality

  Air Quality AQ Index Pollutant
Not available.

Snow Depth

Station Depth Elevation

Earthquake Activity

City Distance Mag. Time & Date
Minimum magnitude displayed is 2.5.

Coastal Water Temperatures

Place Temperature

Stations

Nearby Weather Stations

Station Location Temp. Windchill Dew Point Humidity Wind Precip. Elev Updated Type